GCLB weather

El Berriel Aeroc Airport
Gran Canaria Island, Canary Islands, Spain

Public forecast

Using degrees Celsius for public forecast. Weather courtesy of forecast.io.

METAR (pilot weather report)

Closest report is Gran Canaria Airport, 11.0 nm (20.4 km) NE. Retrieved 2019/05/24 00:30 UTC (0 seconds ago):

GCLP 240030Z 36021G31KT 9999 FEW025 20/12 Q1016 WS ALL RWY NOSIG

TAF (pilot weather forecast)

Closest forecast is Gran Canaria Airport, 11.0 nm (20.4 km) NE. Retrieved 2019/05/23 21:44 UTC (3 hours ago):

TAF GCLP 232000Z 2321/2421 01025KT 9999 SCT025 TX25/2415Z TN19/2406Z PROB40 TEMPO 2321/2421 36025G37KT